1899 NOT_NAMED (1899001S10067)


IBTrACS version v04r00. Visit IBTrACS website for data access.
Please direct all questions to the IBTrACS Q and A forum

Storm track - Intensity - Wind Radii - Intensity Data - Source Data - All data

Summary Information

Storm ID 1899001S10067
Start Jan 1 06Z
End Jan 12 06Z
ATCF IDs
Track status Best track data.

Storm track plot

Map of storm track

Intensity plots

No Intensity information for this storm


Radial wind information

No radial wind information for this storm


Position and Intensity Table

BASIN ISO_TIME_________ NATURE LAT LON
degrees north degrees east
SI 1899-01-01 06:00:00 NR -9.70 67.30
SI 09:00:00 NR -9.79 67.21
SI 12:00:00 NR -9.88 67.11
SI 15:00:00 NR -9.98 67.02
SI 18:00:00 NR -10.07 66.92
SI 21:00:00 NR -10.17 66.82
SI 1899-01-02 00:00:00 NR -10.28 66.72
SI 03:00:00 NR -10.38 66.61
SI 06:00:00 NR -10.50 66.50
SI 09:00:00 NR -10.62 66.38
SI 12:00:00 NR -10.75 66.26
SI 15:00:00 NR -10.88 66.14
SI 18:00:00 NR -11.02 66.01
SI 21:00:00 NR -11.16 65.89
SI 1899-01-03 00:00:00 NR -11.31 65.76
SI 03:00:00 NR -11.45 65.63
SI 06:00:00 NR -11.60 65.50
SI 09:00:00 NR -11.75 65.37
SI 12:00:00 NR -11.90 65.25
SI 15:00:00 NR -12.05 65.12
SI 18:00:00 NR -12.20 64.99
SI 21:00:00 NR -12.35 64.87
SI 1899-01-04 00:00:00 NR -12.50 64.74
SI 03:00:00 NR -12.65 64.62
SI 06:00:00 NR -12.80 64.50
SI 09:00:00 NR -12.94 64.39
SI 12:00:00 NR -13.07 64.28
SI 15:00:00 NR -13.20 64.17
SI 18:00:00 NR -13.33 64.06
SI 21:00:00 NR -13.47 63.95
SI 1899-01-05 00:00:00 NR -13.61 63.84
SI 03:00:00 NR -13.75 63.72
SI 06:00:00 NR -13.90 63.60
SI 09:00:00 NR -14.07 63.46
SI 12:00:00 NR -14.24 63.31
SI 15:00:00 NR -14.42 63.16
SI 18:00:00 NR -14.60 63.00
SI 21:00:00 NR -14.78 62.84
SI 1899-01-06 00:00:00 NR -14.96 62.69
SI 03:00:00 NR -15.13 62.54
SI 06:00:00 NR -15.30 62.40
SI 09:00:00 NR -15.45 62.27
SI 12:00:00 NR -15.58 62.15
SI 15:00:00 NR -15.72 62.04
SI 18:00:00 NR -15.85 61.93
SI 21:00:00 NR -15.98 61.82
SI 1899-01-07 00:00:00 NR -16.12 61.71
SI 03:00:00 NR -16.25 61.61
SI 06:00:00 NR -16.40 61.50
SI 09:00:00 NR -16.57 61.37
SI 12:00:00 NR -16.74 61.25
SI 15:00:00 NR -16.92 61.12
SI 18:00:00 NR -17.10 61.00
SI 21:00:00 NR -17.28 60.88
SI 1899-01-08 00:00:00 NR -17.46 60.78
SI 03:00:00 NR -17.63 60.68
SI 06:00:00 NR -17.80 60.60
SI 09:00:00 NR -17.93 60.53
SI 12:00:00 NR -18.06 60.47
SI 15:00:00 NR -18.18 60.43
SI 18:00:00 NR -18.30 60.40
SI 21:00:00 NR -18.43 60.38
SI 1899-01-09 00:00:00 NR -18.57 60.37
SI 03:00:00 NR -18.72 60.38
SI 06:00:00 NR -18.90 60.40
SI 09:00:00 NR -19.08 60.37
SI 12:00:00 NR -19.27 60.34
SI 15:00:00 NR -19.49 60.33
SI 18:00:00 NR -19.73 60.35
SI 21:00:00 NR -20.00 60.40
SI 1899-01-10 00:00:00 NR -20.29 60.50
SI 03:00:00 NR -20.63 60.67
SI 06:00:00 NR -21.00 60.90
SI 09:00:00 NR -21.48 61.29
SI 12:00:00 NR -22.01 61.75
SI 15:00:00 NR -22.57 62.28
SI 18:00:00 NR -23.13 62.84
SI 21:00:00 NR -23.68 63.41
SI 1899-01-11 00:00:00 NR -24.18 63.96
SI 03:00:00 NR -24.63 64.46
SI 06:00:00 NR -25.00 64.90
SI 09:00:00 NR -25.28 65.24
SI 12:00:00 NR -25.47 65.50
SI 15:00:00 NR -25.58 65.68
SI 18:00:00 NR -25.64 65.80
SI 21:00:00 NR -25.65 65.87
SI 1899-01-12 00:00:00 NR -25.62 65.90
SI 03:00:00 NR -25.57 65.91
SI 06:00:00 NR -25.50 65.90

Source Information

Agency Information
USA
TOKYO
CMA
HKO
NEWDELHI
REUNION WMO-Best-Tracks.txt:Line=1845:xxxx899269
BOM
NADI
WELLINGTON
DS824
TD9636
TD9635
NEUMANN
MLC

All available IBTrACS Data

SEASON BASIN SUBBASIN ISO_TIME_________ NATURE LAT LON WMO AGENCY DIST2LAND LANDFALL IFLAG USA SSHS REUNION LAT REUNION LON REUNION TYPE REUNION TNUM STORM SPEED STORM DIR
Year degrees north degrees east km km 1 degrees north degrees east 1 kts degrees
1899 SI MM 1899-01-01 06:00:00 NR -9.70 67.30 reunion 1554 1538 _____O________ -1 -9.70 67.30 99 9.90 3 223
1899 SI MM 09:00:00 NR -9.79 67.21 1538 1523 _____P________ -1 -9.79 67.21 99 3 225
1899 SI MM 12:00:00 NR -9.88 67.11 1523 1507 _____P________ -1 -9.88 67.11 99 3 225
1899 SI MM 15:00:00 NR -9.98 67.02 1507 1491 _____P________ -1 -9.98 67.02 99 3 225
1899 SI MM 18:00:00 NR -10.07 66.92 1491 1476 _____P________ -1 -10.07 66.92 99 3 224
1899 SI MM 21:00:00 NR -10.17 66.82 1476 1460 _____P________ -1 -10.17 66.82 99 3 224
1899 SI MM 1899-01-02 00:00:00 NR -10.28 66.72 1460 1445 _____P________ -1 -10.28 66.72 99 3 224
1899 SI MM 03:00:00 NR -10.38 66.61 1445 1429 _____P________ -1 -10.38 66.61 99 3 224
1899 SI MM 06:00:00 NR -10.50 66.50 reunion 1429 1413 _____O________ -1 -10.50 66.50 99 9.90 3 223
1899 SI MM 09:00:00 NR -10.62 66.38 1413 1398 _____P________ -1 -10.62 66.38 99 3 223
1899 SI MM 12:00:00 NR -10.75 66.26 1398 1367 _____P________ -1 -10.75 66.26 99 4 223
1899 SI MM 15:00:00 NR -10.88 66.14 1367 1351 _____P________ -1 -10.88 66.14 99 4 222
1899 SI MM 18:00:00 NR -11.02 66.01 1351 1327 _____P________ -1 -11.02 66.01 99 4 222
1899 SI MM 21:00:00 NR -11.16 65.89 1327 1311 _____P________ -1 -11.16 65.89 99 4 222
1899 SI MM 1899-01-03 00:00:00 NR -11.31 65.76 1311 1289 _____P________ -1 -11.31 65.76 99 4 221
1899 SI MM 03:00:00 NR -11.45 65.63 1280 1264 _____P________ -1 -11.45 65.63 99 4 221
1899 SI MM 06:00:00 NR -11.60 65.50 reunion 1264 1249 _____O________ -1 -11.60 65.50 99 9.90 4 220
1899 SI MM 09:00:00 NR -11.75 65.37 1249 1225 _____P________ -1 -11.75 65.37 99 4 220
1899 SI MM 12:00:00 NR -11.90 65.25 1218 1202 _____P________ -1 -11.90 65.25 99 4 220
1899 SI MM 15:00:00 NR -12.05 65.12 1202 1178 _____P________ -1 -12.05 65.12 99 4 219
1899 SI MM 18:00:00 NR -12.20 64.99 1178 1162 _____P________ -1 -12.20 64.99 99 4 219
1899 SI MM 21:00:00 NR -12.35 64.87 1154 1131 _____P________ -1 -12.35 64.87 99 4 219
1899 SI MM 1899-01-04 00:00:00 NR -12.50 64.74 1131 1116 _____P________ -1 -12.50 64.74 99 4 219
1899 SI MM 03:00:00 NR -12.65 64.62 1107 1092 _____P________ -1 -12.65 64.62 99 4 219
1899 SI MM 06:00:00 NR -12.80 64.50 reunion 1092 1076 _____O________ -1 -12.80 64.50 99 9.90 4 219
1899 SI MM 09:00:00 NR -12.94 64.39 1076 1052 _____P________ -1 -12.94 64.39 99 3 219
1899 SI MM 12:00:00 NR -13.07 64.28 1052 1036 _____P________ -1 -13.07 64.28 99 3 218
1899 SI MM 15:00:00 NR -13.20 64.17 1036 1021 _____P________ -1 -13.20 64.17 99 3 218
1899 SI MM 18:00:00 NR -13.33 64.06 1021 997 _____P________ -1 -13.33 64.06 99 3 219
1899 SI MM 21:00:00 NR -13.47 63.95 997 974 _____P________ -1 -13.47 63.95 99 3 218
1899 SI MM 1899-01-05 00:00:00 NR -13.61 63.84 974 959 _____P________ -1 -13.61 63.84 99 4 218
1899 SI MM 03:00:00 NR -13.75 63.72 950 935 _____P________ -1 -13.75 63.72 99 4 219
1899 SI MM 06:00:00 NR -13.90 63.60 reunion 935 911 _____O________ -1 -13.90 63.60 99 9.90 4 219
1899 SI MM 09:00:00 NR -14.07 63.46 911 888 _____P________ -1 -14.07 63.46 99 4 220
1899 SI MM 12:00:00 NR -14.24 63.31 888 864 _____P________ -1 -14.24 63.31 99 5 220
1899 SI MM 15:00:00 NR -14.42 63.16 864 833 _____P________ -1 -14.42 63.16 99 5 220
1899 SI MM 18:00:00 NR -14.60 63.00 833 809 _____P________ -1 -14.60 63.00 99 5 220
1899 SI MM 21:00:00 NR -14.78 62.84 802 787 _____P________ -1 -14.78 62.84 99 5 220
1899 SI MM 1899-01-06 00:00:00 NR -14.96 62.69 778 756 _____P________ -1 -14.96 62.69 99 5 220
1899 SI MM 03:00:00 NR -15.13 62.54 756 732 _____P________ -1 -15.13 62.54 99 4 219
1899 SI MM 06:00:00 NR -15.30 62.40 reunion 732 716 _____O________ -1 -15.30 62.40 99 9.90 4 220
1899 SI MM 09:00:00 NR -15.45 62.27 716 693 _____P________ -1 -15.45 62.27 99 4 220
1899 SI MM 12:00:00 NR -15.58 62.15 693 670 _____P________ -1 -15.58 62.15 99 4 220
1899 SI MM 15:00:00 NR -15.72 62.04 670 654 _____P________ -1 -15.72 62.04 99 3 219
1899 SI MM 18:00:00 NR -15.85 61.93 654 631 _____P________ -1 -15.85 61.93 99 3 218
1899 SI MM 21:00:00 NR -15.98 61.82 631 615 _____P________ -1 -15.98 61.82 99 3 218
1899 SI MM 1899-01-07 00:00:00 NR -16.12 61.71 615 600 _____P________ -1 -16.12 61.71 99 3 217
1899 SI MM 03:00:00 NR -16.25 61.61 591 576 _____P________ -1 -16.25 61.61 99 4 216
1899 SI MM 06:00:00 NR -16.40 61.50 reunion 576 552 _____O________ -1 -16.40 61.50 99 9.90 4 215
1899 SI MM 09:00:00 NR -16.57 61.37 552 537 _____P________ -1 -16.57 61.37 99 4 216
1899 SI MM 12:00:00 NR -16.74 61.25 530 506 _____P________ -1 -16.74 61.25 99 4 215
1899 SI MM 15:00:00 NR -16.92 61.12 506 483 _____P________ -1 -16.92 61.12 99 4 214
1899 SI MM 18:00:00 NR -17.10 61.00 483 460 _____P________ -1 -17.10 61.00 99 4 212
1899 SI MM 21:00:00 NR -17.28 60.88 460 444 _____P________ -1 -17.28 60.88 99 4 210
1899 SI MM 1899-01-08 00:00:00 NR -17.46 60.78 437 421 _____P________ -1 -17.46 60.78 99 4 209
1899 SI MM 03:00:00 NR -17.63 60.68 421 399 _____P________ -1 -17.63 60.68 99 4 206
1899 SI MM 06:00:00 NR -17.80 60.60 reunion 399 383 _____O________ -1 -17.80 60.60 99 9.90 3 205
1899 SI MM 09:00:00 NR -17.93 60.53 383 376 _____P________ -1 -17.93 60.53 99 3 206
1899 SI MM 12:00:00 NR -18.06 60.47 369 354 _____P________ -1 -18.06 60.47 99 3 202
1899 SI MM 15:00:00 NR -18.18 60.43 354 347 _____P________ -1 -18.18 60.43 99 3 195
1899 SI MM 18:00:00 NR -18.30 60.40 347 341 _____P________ -1 -18.30 60.40 99 3 190
1899 SI MM 21:00:00 NR -18.43 60.38 341 329 _____P________ -1 -18.43 60.38 99 3 183
1899 SI MM 1899-01-09 00:00:00 NR -18.57 60.37 329 323 _____P________ -1 -18.57 60.37 99 3 0
1899 SI MM 03:00:00 NR -18.72 60.38 323 313 _____P________ -1 -18.72 60.38 99 3 176
1899 SI MM 06:00:00 NR -18.90 60.40 reunion 313 303 _____O________ -1 -18.90 60.40 99 9.90 4 0
1899 SI MM 09:00:00 NR -19.08 60.37 303 284 _____P________ -1 -19.08 60.37 99 4 187
1899 SI MM 12:00:00 NR -19.27 60.34 284 276 _____P________ -1 -19.27 60.34 99 4 186
1899 SI MM 15:00:00 NR -19.49 60.33 276 269 _____P________ -1 -19.49 60.33 99 5 0
1899 SI MM 18:00:00 NR -19.73 60.35 269 267 _____P________ -1 -19.73 60.35 99 5 172
1899 SI MM 21:00:00 NR -20.00 60.40 273 271 _____P________ -1 -20.00 60.40 99 6 165
1899 SI MM 1899-01-10 00:00:00 NR -20.29 60.50 281 281 _____P________ -1 -20.29 60.50 99 7 158
1899 SI MM 03:00:00 NR -20.63 60.67 303 303 _____P________ -1 -20.63 60.67 99 8 152
1899 SI MM 06:00:00 NR -21.00 60.90 reunion 331 331 _____O________ -1 -21.00 60.90 99 9.90 10 146
1899 SI MM 09:00:00 NR -21.48 61.29 387 387 _____P________ -1 -21.48 61.29 99 13 142
1899 SI MM 12:00:00 NR -22.01 61.75 456 456 _____P________ -1 -22.01 61.75 99 14 140
1899 SI MM 15:00:00 NR -22.57 62.28 530 530 _____P________ -1 -22.57 62.28 99 15 138
1899 SI MM 18:00:00 NR -23.13 62.84 601 601 _____P________ -1 -23.13 62.84 99 15 137
1899 SI MM 21:00:00 NR -23.68 63.41 687 687 _____P________ -1 -23.68 63.41 99 15 136
1899 SI MM 1899-01-11 00:00:00 NR -24.18 63.96 768 768 _____P________ -1 -24.18 63.96 99 14 135
1899 SI MM 03:00:00 NR -24.63 64.46 834 834 _____P________ -1 -24.63 64.46 99 12 134
1899 SI MM 06:00:00 NR -25.00 64.90 reunion 892 892 _____O________ -1 -25.00 64.90 99 9.90 10 132
1899 SI MM 09:00:00 NR -25.28 65.24 936 936 _____P________ -1 -25.28 65.24 99 7 131
1899 SI MM 12:00:00 NR -25.47 65.50 973 973 _____P________ -1 -25.47 65.50 99 5 128
1899 SI MM 15:00:00 NR -25.58 65.68 996 996 _____P________ -1 -25.58 65.68 99 3 123
1899 SI MM 18:00:00 NR -25.64 65.80 1005 1005 _____P________ -1 -25.64 65.80 99 2 111
1899 SI MM 21:00:00 NR -25.65 65.87 1013 1013 _____P________ -1 -25.65 65.87 99 1 76
1899 SI MM 1899-01-12 00:00:00 NR -25.62 65.90 1013 1013 _____P________ -1 -25.62 65.90 99 1 23
1899 SI MM 03:00:00 NR -25.57 65.91 1013 1007 _____P________ -1 -25.57 65.91 99 1 354
1899 SI MM 06:00:00 NR -25.50 65.90 reunion 1007 _____O________ -1 -25.50 65.90 99 9.90 1 342